Time;durP1;ratioP1;P1;durP2;ratioP2;P2;SDS_P1;SDS_P2;PMS_P1;PMS_P2;Temp;Humidity;BMP_temperature;BMP_pressure;BME280_temperature;BME280_humidity;BME280_pressure;Samples;Min_cycle;Max_cycle;Signal;HPM_P1;HPM_P2
2021/10/22 00:02:05;;;;;;;97.73;81.57;;;7.80;99.90;;;;;;5035523;28;20252;-81
2021/10/22 00:04:34;;;;;;;106.07;90.07;;;7.80;99.90;;;;;;5036197;28;20169;-81
2021/10/22 00:07:00;;;;;;;146.25;132.07;;;7.80;99.90;;;;;;5036787;28;20165;-81
2021/10/22 00:09:26;;;;;;;143.10;129.70;;;7.80;99.90;;;;;;5037352;28;20277;-82
2021/10/22 00:11:51;;;;;;;137.70;124.70;;;7.90;99.90;;;;;;5034857;28;20231;-81
2021/10/22 00:14:17;;;;;;;116.43;104.57;;;8.00;99.90;;;;;;5036201;28;20176;-81
2021/10/22 00:16:43;;;;;;;151.63;138.70;;;8.00;99.90;;;;;;5035887;28;20491;-81
2021/10/22 00:19:12;;;;;;;179.63;165.07;;;7.90;99.90;;;;;;5034593;28;20283;-81
2021/10/22 00:21:38;;;;;;;150.68;136.77;;;8.00;99.90;;;;;;5036405;28;20169;-81
2021/10/22 00:24:04;;;;;;;155.60;141.90;;;8.00;99.90;;;;;;5036699;28;20240;-81
2021/10/22 00:26:33;;;;;;;113.43;101.55;;;8.00;99.90;;;;;;5036350;28;20153;-81
2021/10/22 00:29:02;;;;;;;121.88;108.70;;;8.00;99.90;;;;;;5098050;22;20228;-84
2021/10/22 00:31:28;;;;;;;153.68;140.20;;;8.00;99.90;;;;;;5036644;28;20165;-83
2021/10/22 00:33:56;;;;;;;160.03;146.53;;;8.00;99.90;;;;;;5036554;28;20168;-84
2021/10/22 00:36:33;;;;;;;181.68;167.18;;;8.00;99.90;;;;;;5035302;28;20175;-82
2021/10/22 00:39:05;;;;;;;195.00;179.80;;;8.00;99.90;;;;;;5037241;28;20262;-84
2021/10/22 00:41:41;;;;;;;214.88;198.77;;;8.00;99.90;;;;;;5038511;28;20171;-84
2021/10/22 00:44:12;;;;;;;220.68;204.32;;;8.00;99.90;;;;;;5038071;28;20168;-85
2021/10/22 00:46:47;;;;;;;214.10;198.90;;;8.00;99.90;;;;;;5037107;28;20165;-84
2021/10/22 00:50:01;;;;;;;203.15;188.10;;;8.00;99.90;;;;;;5038071;28;20188;-85
2021/10/22 00:52:10;;;;;;;208.15;192.93;;;8.00;99.90;;;;;;5027691;28;20228;-85
2021/10/22 00:54:59;;;;;;;150.25;136.20;;;8.00;99.90;;;;;;5038432;28;20150;-85
2021/10/22 00:57:25;;;;;;;135.70;122.90;;;8.00;99.90;;;;;;5037002;28;20169;-85
2021/10/22 01:00:12;;;;;;;129.05;116.32;;;8.00;99.90;;;;;;5039289;28;20185;-84
2021/10/22 01:02:41;;;;;;;135.38;122.20;;;7.90;99.90;;;;;;5038207;28;20173;-85
2021/10/22 01:05:17;;;;;;;137.85;125.03;;;7.90;99.90;;;;;;5038251;28;20693;-84
2021/10/22 01:07:52;;;;;;;120.00;107.50;;;7.90;99.90;;;;;;5036583;28;20196;-85
2021/10/22 01:10:31;;;;;;;119.18;106.78;;;7.90;99.90;;;;;;5038297;28;20156;-85
2021/10/22 01:13:09;;;;;;;111.28;99.45;;;7.90;99.90;;;;;;5037032;28;20268;-85
2021/10/22 01:15:38;;;;;;;96.10;74.43;;;7.90;99.90;;;;;;5016644;28;20181;-85
2021/10/22 01:18:15;;;;;;;106.97;81.78;;;7.90;99.90;;;;;;5036848;28;20192;-85
2021/10/22 01:20:51;;;;;;;97.20;80.10;;;7.90;99.90;;;;;;5037197;28;20255;-85
2021/10/22 01:23:22;;;;;;;107.65;93.97;;;7.80;99.90;;;;;;5037941;28;20180;-85
2021/10/22 01:25:57;;;;;;;112.85;98.68;;;7.80;99.90;;;;;;5036488;28;20215;-85
2021/10/22 01:28:47;;;;;;;117.35;103.63;;;7.80;99.90;;;;;;5038669;28;20215;-85
2021/10/22 01:31:27;;;;;;;125.05;111.78;;;7.70;99.90;;;;;;5036902;28;20263;-85
2021/10/22 01:33:56;;;;;;;140.13;127.40;;;7.70;99.90;;;;;;5038333;28;20156;-85
2021/10/22 01:36:33;;;;;;;141.77;128.77;;;7.60;99.90;;;;;;5038597;28;20184;-85
2021/10/22 01:39:13;;;;;;;109.05;96.10;;;7.60;99.90;;;;;;5035714;28;20197;-84
2021/10/22 01:42:13;;;;;;;94.90;74.68;;;7.70;99.90;;;;;;5037489;28;20172;-85
2021/10/22 01:44:50;;;;;;;96.57;82.63;;;7.60;99.90;;;;;;5033079;28;20177;-85
2021/10/22 01:47:43;;;;;;;95.30;74.53;;;7.60;99.90;;;;;;5039174;28;20184;-85
2021/10/22 01:50:11;;;;;;;87.10;58.83;;;7.50;99.90;;;;;;5037545;28;20177;-85
2021/10/22 01:52:53;;;;;;;88.50;56.20;;;7.50;99.90;;;;;;5036642;28;20177;-85
2021/10/22 01:55:22;;;;;;;105.55;91.70;;;7.50;99.90;;;;;;5037196;28;20169;-85
2021/10/22 01:58:02;;;;;;;94.63;67.40;;;7.50;99.90;;;;;;5031794;28;20251;-85
2021/10/22 02:00:58;;;;;;;97.60;77.03;;;7.60;99.90;;;;;;5037476;28;20196;-85
2021/10/22 02:04:30;;;;;;;107.18;93.75;;;7.50;99.90;;;;;;5036360;28;20181;-85
2021/10/22 02:06:39;;;;;;;106.13;92.85;;;7.50;99.90;;;;;;5033281;28;20169;-85
2021/10/22 02:09:08;;;;;;;104.97;89.63;;;7.40;99.90;;;;;;5037341;28;20272;-85
2021/10/22 02:11:43;;;;;;;111.13;94.57;;;7.50;99.90;;;;;;5036523;28;20165;-84
2021/10/22 02:14:18;;;;;;;98.20;85.97;;;7.40;99.90;;;;;;5033277;28;20260;-84
2021/10/22 02:17:09;;;;;;;105.18;84.93;;;7.50;99.90;;;;;;5033595;28;20153;-84
2021/10/22 02:19:36;;;;;;;128.20;115.57;;;7.50;99.90;;;;;;5033997;28;20197;-84
2021/10/22 02:22:38;;;;;;;133.90;121.25;;;7.30;99.90;;;;;;5033162;28;20172;-83
2021/10/22 02:25:10;;;;;;;132.35;119.25;;;7.40;99.90;;;;;;5036200;28;20222;-83
2021/10/22 02:27:47;;;;;;;130.73;117.57;;;7.40;99.90;;;;;;5036808;28;20749;-84
2021/10/22 02:30:21;;;;;;;109.00;96.88;;;7.40;99.90;;;;;;5038800;28;20195;-84
2021/10/22 02:32:54;;;;;;;128.02;115.22;;;7.30;99.90;;;;;;5037749;28;20234;-83
2021/10/22 02:35:21;;;;;;;119.78;107.70;;;7.30;99.90;;;;;;5037530;28;20173;-84
2021/10/22 02:37:50;;;;;;;130.23;117.47;;;7.30;99.90;;;;;;5037025;28;20262;-83
2021/10/22 02:40:17;;;;;;;139.35;126.53;;;7.20;99.90;;;;;;5039404;28;20659;-83
2021/10/22 02:42:50;;;;;;;105.97;87.45;;;7.20;99.90;;;;;;5038717;28;20182;-85
2021/10/22 02:45:24;;;;;;;98.93;85.15;;;7.20;99.90;;;;;;5039738;28;20165;-85
2021/10/22 02:47:56;;;;;;;99.43;75.20;;;7.30;99.90;;;;;;5037706;28;20223;-85
2021/10/22 02:51:07;;;;;;;109.20;97.97;;;7.20;99.90;;;;;;5041473;28;20149;-85
2021/10/22 02:53:41;;;;;;;114.65;102.05;;;7.10;99.90;;;;;;5040308;28;20192;-85
2021/10/22 02:56:07;;;;;;;107.30;95.88;;;7.00;99.90;;;;;;5039870;28;20173;-84
2021/10/22 02:58:36;;;;;;;109.13;97.90;;;7.10;99.90;;;;;;5040332;28;20240;-85
2021/10/22 03:01:02;;;;;;;108.82;95.40;;;7.10;99.90;;;;;;5039614;28;20186;-84
2021/10/22 03:03:28;;;;;;;127.55;115.05;;;7.10;99.90;;;;;;5039901;28;20591;-85
2021/10/22 03:06:07;;;;;;;131.40;119.00;;;7.10;99.90;;;;;;5038783;28;20161;-85
2021/10/22 03:08:35;;;;;;;111.30;98.18;;;7.10;99.90;;;;;;5039740;28;20212;-85
2021/10/22 03:11:06;;;;;;;98.18;82.03;;;7.10;99.90;;;;;;5039148;28;20169;-85
2021/10/22 03:13:32;;;;;;;97.38;78.03;;;7.00;99.90;;;;;;5039879;28;20169;-85
2021/10/22 03:16:01;;;;;;;89.27;63.40;;;7.00;99.90;;;;;;5039610;28;20176;-85
2021/10/22 03:18:27;;;;;;;90.53;61.40;;;7.00;99.90;;;;;;5040549;28;20430;-85
2021/10/22 03:20:56;;;;;;;84.87;49.60;;;7.10;99.90;;;;;;5040328;28;20271;-85
2021/10/22 03:23:25;;;;;;;88.32;52.97;;;7.10;99.90;;;;;;5040033;28;20495;-85
2021/10/22 03:26:00;;;;;;;82.38;43.65;;;7.00;99.90;;;;;;5040999;28;20190;-85
2021/10/22 03:28:35;;;;;;;82.55;45.00;;;7.00;99.90;;;;;;5039196;28;20256;-85
2021/10/22 03:31:09;;;;;;;85.72;52.28;;;7.00;99.90;;;;;;5039083;28;20182;-85
2021/10/22 03:33:52;;;;;;;82.55;45.30;;;6.80;99.90;;;;;;5039047;28;20169;-84
2021/10/22 03:36:27;;;;;;;83.32;48.58;;;6.90;99.90;;;;;;5036836;28;20177;-85
2021/10/22 03:39:02;;;;;;;86.85;50.72;;;6.90;99.90;;;;;;5040672;28;20193;-85
2021/10/22 03:41:37;;;;;;;86.60;51.80;;;6.90;99.90;;;;;;5039057;28;20180;-85
2021/10/22 03:44:06;;;;;;;94.20;48.67;;;6.90;99.90;;;;;;5040515;28;20164;-85
2021/10/22 03:46:46;;;;;;;90.95;50.92;;;6.90;99.90;;;;;;5042543;28;20168;-85
2021/10/22 03:49:15;;;;;;;87.00;51.13;;;6.90;99.90;;;;;;5040307;28;20242;-85
2021/10/22 03:51:53;;;;;;;87.85;59.13;;;6.90;99.90;;;;;;5038358;28;20165;-85
2021/10/22 03:54:25;;;;;;;90.90;52.42;;;6.90;99.90;;;;;;5038121;28;20177;-85
2021/10/22 03:56:51;;;;;;;91.38;64.50;;;6.80;99.90;;;;;;5037354;28;20544;-85
2021/10/22 03:59:20;;;;;;;91.78;56.25;;;6.80;99.90;;;;;;5039025;28;20201;-85
2021/10/22 04:01:52;;;;;;;93.70;54.25;;;6.70;99.90;;;;;;5039225;28;20165;-85
2021/10/22 04:04:27;;;;;;;89.22;55.67;;;6.70;99.90;;;;;;5038485;28;20176;-85
2021/10/22 04:06:57;;;;;;;85.00;48.33;;;6.80;99.90;;;;;;5037690;28;20173;-85
2021/10/22 04:09:26;;;;;;;84.70;51.97;;;6.80;99.90;;;;;;5038180;28;20189;-84
2021/10/22 04:11:58;;;;;;;84.70;50.38;;;6.80;99.90;;;;;;5038335;28;20183;-85
2021/10/22 04:14:24;;;;;;;87.65;55.00;;;6.80;99.90;;;;;;5039282;28;20537;-85
2021/10/22 04:16:59;;;;;;;94.80;60.35;;;6.70;99.90;;;;;;5037671;28;20188;-84
2021/10/22 04:19:28;;;;;;;99.20;77.72;;;6.70;99.90;;;;;;5036019;28;20197;-83
2021/10/22 04:21:57;;;;;;;114.55;103.22;;;6.80;99.90;;;;;;5034661;28;20696;-84
2021/10/22 04:24:40;;;;;;;118.72;107.05;;;6.90;99.90;;;;;;5034709;28;20169;-84
2021/10/22 04:27:17;;;;;;;115.80;104.53;;;6.80;99.90;;;;;;5036767;28;20240;-85
2021/10/22 04:29:45;;;;;;;99.90;89.00;;;6.80;99.90;;;;;;5036397;28;20181;-84
2021/10/22 04:32:34;;;;;;;106.82;95.55;;;6.80;99.90;;;;;;5035180;28;20169;-85
2021/10/22 04:35:00;;;;;;;109.68;98.10;;;6.80;99.90;;;;;;5038052;28;20196;-85
2021/10/22 04:37:45;;;;;;;102.90;91.73;;;6.80;99.90;;;;;;5037663;28;20173;-85
2021/10/22 04:43:30;;;;;;;92.50;73.78;;;6.70;99.90;;;;;;5039696;28;20225;-85
2021/10/22 04:45:59;;;;;;;95.60;83.03;;;6.80;99.90;;;;;;5029060;28;20663;-85
2021/10/22 04:48:28;;;;;;;111.32;100.20;;;6.80;99.90;;;;;;5037429;28;20185;-85
2021/10/22 04:50:59;;;;;;;127.20;115.35;;;6.70;99.90;;;;;;5038670;28;20173;-85
2021/10/22 04:53:26;;;;;;;130.70;117.85;;;6.70;99.90;;;;;;5037402;28;20671;-85
2021/10/22 04:56:02;;;;;;;94.65;74.75;;;6.70;99.90;;;;;;5038739;28;20619;-84
2021/10/22 04:58:27;;;;;;;109.43;95.13;;;6.80;99.90;;;;;;5037284;28;20572;-85
2021/10/22 05:00:56;;;;;;;137.00;124.30;;;6.70;99.90;;;;;;5038024;28;20196;-85
2021/10/22 05:03:22;;;;;;;107.13;96.25;;;6.70;99.90;;;;;;5038657;28;20164;-84
2021/10/22 05:05:50;;;;;;;88.93;65.03;;;6.70;99.90;;;;;;5038434;28;20169;-84
2021/10/22 05:08:16;;;;;;;111.00;99.30;;;6.70;99.90;;;;;;5036523;28;20436;-85
2021/10/22 05:10:45;;;;;;;95.30;79.67;;;6.70;99.90;;;;;;5038270;28;20165;-85
2021/10/22 05:13:14;;;;;;;99.97;82.85;;;6.70;99.90;;;;;;5038533;28;20659;-85
2021/10/22 05:15:49;;;;;;;95.60;71.05;;;6.70;99.90;;;;;;5038700;28;20165;-85
2021/10/22 05:18:15;;;;;;;107.03;93.93;;;6.70;99.90;;;;;;5038017;28;20191;-85
2021/10/22 05:20:41;;;;;;;92.10;70.00;;;6.70;99.90;;;;;;5038129;28;20192;-85
2021/10/22 05:23:16;;;;;;;90.78;73.18;;;6.70;99.90;;;;;;5038622;28;20424;-84
2021/10/22 05:25:44;;;;;;;94.80;64.00;;;6.70;99.90;;;;;;5037251;28;20153;-85
2021/10/22 05:28:15;;;;;;;89.57;60.85;;;6.70;99.90;;;;;;5037654;28;20185;-85
2021/10/22 05:30:44;;;;;;;111.00;99.28;;;6.70;99.90;;;;;;5038584;28;20545;-85
2021/10/22 05:33:19;;;;;;;94.97;69.13;;;6.60;99.90;;;;;;5039674;28;20268;-85
2021/10/22 05:35:51;;;;;;;97.13;75.72;;;6.60;99.90;;;;;;5040472;28;20232;-85
2021/10/22 05:38:16;;;;;;;153.80;140.38;;;6.70;99.90;;;;;;5039009;28;20189;-84
2021/10/22 05:40:45;;;;;;;107.30;95.87;;;6.70;99.90;;;;;;5039192;28;20200;-85
2021/10/22 05:43:17;;;;;;;120.22;108.22;;;6.70;99.90;;;;;;5039411;28;20414;-85
2021/10/22 05:45:45;;;;;;;115.93;104.10;;;6.70;99.90;;;;;;5039551;28;20164;-84
2021/10/22 05:48:11;;;;;;;91.10;66.13;;;6.70;99.90;;;;;;5039233;28;20220;-84
2021/10/22 05:50:40;;;;;;;94.83;62.23;;;6.80;99.90;;;;;;5040732;28;20169;-84
2021/10/22 05:53:07;;;;;;;88.05;50.63;;;6.80;99.90;;;;;;5040386;28;20411;-84
2021/10/22 05:55:35;;;;;;;87.82;57.60;;;6.70;99.90;;;;;;5039890;28;20169;-85
2021/10/22 05:58:01;;;;;;;84.28;47.65;;;6.80;99.90;;;;;;5041035;28;20184;-85
2021/10/22 06:00:26;;;;;;;87.73;49.47;;;6.80;99.90;;;;;;5044482;28;20185;-85
2021/10/22 06:02:53;;;;;;;82.77;34.40;;;6.80;99.90;;;;;;5045345;28;20169;-84
2021/10/22 06:05:19;;;;;;;89.57;39.80;;;6.90;99.90;;;;;;5044127;28;20684;-85
2021/10/22 06:07:45;;;;;;;81.03;31.90;;;6.80;99.90;;;;;;5042828;28;20223;-85
2021/10/22 06:10:11;;;;;;;79.60;34.15;;;6.80;99.90;;;;;;5044127;28;20204;-84
2021/10/22 06:12:37;;;;;;;80.40;31.80;;;6.80;99.90;;;;;;5043352;28;20540;-85
2021/10/22 06:15:04;;;;;;;82.00;30.70;;;6.80;99.90;;;;;;5044348;28;20173;-84
2021/10/22 06:17:31;;;;;;;73.93;23.40;;;6.80;99.90;;;;;;5042507;28;20192;-85
2021/10/22 06:20:08;;;;;;;79.90;27.42;;;6.90;99.90;;;;;;5043415;28;20185;-85
2021/10/22 06:25:22;;;;;;;74.68;21.42;;;6.80;99.90;;;;;;5012997;28;20227;-83
2021/10/22 06:27:49;;;;;;;79.18;20.77;;;6.90;99.90;;;;;;5105193;23;20205;-80
2021/10/22 06:30:16;;;;;;;76.05;18.85;;;6.90;99.90;;;;;;5020336;28;20181;-80
2021/10/22 06:32:42;;;;;;;73.78;19.23;;;6.90;99.90;;;;;;5019629;28;20170;-79
2021/10/22 06:35:08;;;;;;;71.67;19.40;;;6.90;99.90;;;;;;5019637;28;20568;-79
2021/10/22 06:37:34;;;;;;;79.95;20.55;;;6.90;99.90;;;;;;5020139;28;20240;-80
2021/10/22 06:39:59;;;;;;;73.90;21.27;;;6.90;99.90;;;;;;5019070;28;20194;-79
2021/10/22 06:42:25;;;;;;;72.53;18.47;;;7.00;99.90;;;;;;5019527;28;20209;-79
2021/10/22 06:44:51;;;;;;;75.13;20.00;;;6.90;99.90;;;;;;5020022;28;20428;-80
2021/10/22 06:47:17;;;;;;;86.73;24.23;;;7.00;99.90;;;;;;5018807;28;20405;-80
2021/10/22 06:49:42;;;;;;;74.47;19.73;;;7.00;99.90;;;;;;5019027;28;20529;-80
2021/10/22 06:52:08;;;;;;;81.33;18.40;;;7.00;99.90;;;;;;5019495;28;20407;-79
2021/10/22 06:54:34;;;;;;;70.27;15.30;;;7.00;99.90;;;;;;5018936;28;20237;-80
2021/10/22 06:56:59;;;;;;;74.40;20.17;;;7.00;99.90;;;;;;5019112;28;20169;-79
2021/10/22 06:59:25;;;;;;;76.60;28.07;;;7.00;99.90;;;;;;5001227;28;20189;-80
2021/10/22 07:01:51;;;;;;;77.27;19.97;;;6.90;99.90;;;;;;5001458;28;20166;-79
2021/10/22 07:04:16;;;;;;;73.97;21.50;;;7.00;99.90;;;;;;5002278;28;20196;-79
2021/10/22 07:09:26;;;;;;;74.88;23.85;;;7.10;99.90;;;;;;5015609;28;20248;-77
2021/10/22 07:11:52;;;;;;;73.37;19.70;;;7.20;99.90;;;;;;5017061;28;20170;-77
2021/10/22 07:14:18;;;;;;;74.57;23.00;;;7.30;99.90;;;;;;5016914;28;20405;-78
2021/10/22 07:16:43;;;;;;;77.03;25.23;;;7.30;99.90;;;;;;4999640;28;20205;-78
2021/10/22 07:19:10;;;;;;;82.10;30.90;;;7.30;99.90;;;;;;5017479;28;20269;-78
2021/10/22 07:21:42;;;;;;;75.75;28.33;;;7.40;99.90;;;;;;5000049;28;20170;-78
2021/10/22 07:24:16;;;;;;;75.75;28.95;;;7.40;99.90;;;;;;4999849;28;20166;-78
2021/10/22 07:26:41;;;;;;;77.13;33.03;;;7.40;99.90;;;;;;4999893;28;20200;-78
2021/10/22 07:29:07;;;;;;;78.63;26.77;;;7.50;99.90;;;;;;4999744;28;20198;-78
2021/10/22 07:31:33;;;;;;;79.82;32.72;;;7.50;99.90;;;;;;5017767;28;20172;-78
2021/10/22 07:33:59;;;;;;;82.93;43.70;;;7.60;99.90;;;;;;5016978;28;20177;-78
2021/10/22 07:36:25;;;;;;;84.72;51.80;;;7.60;99.90;;;;;;5016638;28;20166;-78
2021/10/22 07:38:51;;;;;;;83.27;47.50;;;7.70;99.90;;;;;;5016854;28;20190;-78
2021/10/22 07:41:17;;;;;;;84.53;51.92;;;7.80;99.90;;;;;;5000065;28;20556;-79
2021/10/22 07:43:44;;;;;;;82.32;42.65;;;7.70;99.90;;;;;;5016959;28;20245;-78
2021/10/22 07:46:10;;;;;;;82.25;45.95;;;7.80;99.90;;;;;;4998967;28;20634;-78
2021/10/22 07:48:36;;;;;;;90.93;62.13;;;7.90;99.90;;;;;;5016811;28;20232;-78
2021/10/22 07:51:02;;;;;;;75.83;32.37;;;8.00;99.90;;;;;;4998801;28;20277;-78
2021/10/22 07:53:28;;;;;;;80.68;38.50;;;8.00;99.90;;;;;;4998847;28;20452;-78
2021/10/22 07:55:53;;;;;;;84.97;57.47;;;8.10;99.90;;;;;;5016454;28;20165;-78
2021/10/22 07:58:19;;;;;;;87.23;53.77;;;8.10;99.90;;;;;;4998914;28;20439;-78
2021/10/22 08:00:45;;;;;;;77.87;36.67;;;8.20;99.90;;;;;;5016481;28;20444;-78
2021/10/22 08:03:10;;;;;;;77.83;27.50;;;8.30;99.90;;;;;;5017065;28;20569;-78
2021/10/22 08:05:36;;;;;;;75.23;22.30;;;8.40;99.90;;;;;;4999323;28;20170;-78
2021/10/22 08:08:04;;;;;;;71.90;17.80;;;8.40;99.90;;;;;;4998843;28;20743;-78
2021/10/22 08:10:29;;;;;;;71.22;13.68;;;8.50;99.90;;;;;;5016221;28;20169;-78
2021/10/22 08:12:55;;;;;;;72.67;12.20;;;8.50;99.90;;;;;;5016258;28;20165;-78
2021/10/22 08:15:21;;;;;;;71.30;12.07;;;8.50;99.90;;;;;;5017104;28;20668;-78
2021/10/22 08:17:47;;;;;;;68.07;10.68;;;8.60;99.90;;;;;;5016090;28;20186;-79
2021/10/22 08:20:20;;;;;;;70.00;11.57;;;8.60;99.90;;;;;;4998382;28;20204;-78
2021/10/22 08:22:46;;;;;;;71.93;10.40;;;8.70;99.90;;;;;;5016291;28;20155;-78
2021/10/22 08:25:13;;;;;;;69.30;10.93;;;8.70;99.90;;;;;;5016435;28;20172;-79
2021/10/22 08:27:45;;;;;;;68.18;9.75;;;8.80;99.90;;;;;;4998434;28;20193;-78
2021/10/22 08:30:18;;;;;;;71.60;12.07;;;8.80;99.90;;;;;;5015513;28;20165;-78
2021/10/22 08:32:50;;;;;;;73.65;10.98;;;8.90;99.90;;;;;;5015792;28;20150;-78
2021/10/22 08:35:21;;;;;;;69.50;9.23;;;8.90;99.90;;;;;;4997757;28;20257;-78
2021/10/22 08:37:48;;;;;;;83.70;12.82;;;9.00;99.90;;;;;;5016251;28;20186;-78
2021/10/22 08:40:16;;;;;;;68.85;11.45;;;9.00;99.90;;;;;;4998425;28;20276;-78
2021/10/22 08:42:46;;;;;;;69.60;12.63;;;9.00;99.90;;;;;;5015934;28;20533;-79
2021/10/22 08:45:13;;;;;;;69.45;12.57;;;9.00;99.90;;;;;;4998242;28;20244;-78
2021/10/22 08:47:40;;;;;;;69.13;12.80;;;9.00;99.90;;;;;;5015433;28;20178;-78
2021/10/22 08:50:12;;;;;;;69.13;12.60;;;9.00;99.90;;;;;;5015353;28;20165;-77
2021/10/22 08:52:40;;;;;;;69.57;10.85;;;9.00;99.90;;;;;;4996949;28;20177;-78
2021/10/22 08:55:07;;;;;;;69.60;11.20;;;9.10;99.90;;;;;;5014888;28;20244;-77
2021/10/22 08:57:37;;;;;;;69.38;11.15;;;9.10;99.90;;;;;;4997642;28;20193;-77
2021/10/22 09:00:05;;;;;;;74.03;22.55;;;9.10;99.90;;;;;;4997565;28;20198;-78
2021/10/22 09:02:31;;;;;;;69.97;11.93;;;9.20;99.90;;;;;;5015728;28;20170;-78
2021/10/22 09:05:09;;;;;;;73.20;11.60;;;9.20;99.90;;;;;;4997795;28;20660;-78
2021/10/22 09:07:40;;;;;;;69.88;13.15;;;9.30;99.90;;;;;;5015700;28;20178;-79
2021/10/22 09:10:27;;;;;;;69.80;14.27;;;9.40;99.90;;;;;;5016458;28;20249;-79
2021/10/22 09:12:58;;;;;;;70.97;13.45;;;9.40;99.90;;;;;;4997701;28;20170;-79
2021/10/22 09:15:26;;;;;;;75.18;12.77;;;9.40;99.90;;;;;;4997851;28;20158;-78
2021/10/22 09:17:54;;;;;;;75.90;10.82;;;9.50;99.90;;;;;;5015253;28;20189;-78
2021/10/22 09:20:22;;;;;;;72.10;13.10;;;9.60;99.90;;;;;;5015291;28;20189;-78
2021/10/22 09:23:01;;;;;;;69.78;14.82;;;9.80;99.90;;;;;;5015309;28;20532;-78
2021/10/22 09:25:30;;;;;;;70.13;12.05;;;9.90;99.90;;;;;;5014723;28;20201;-77
2021/10/22 09:28:01;;;;;;;70.30;10.93;;;10.00;99.90;;;;;;5014312;28;20190;-78
2021/10/22 09:30:36;;;;;;;70.47;12.27;;;10.10;99.90;;;;;;5014470;28;20224;-78
2021/10/22 09:33:05;;;;;;;74.07;12.82;;;10.20;99.90;;;;;;5014116;28;20256;-78
2021/10/22 09:35:50;;;;;;;73.97;13.02;;;10.40;99.90;;;;;;5014073;28;20177;-77
2021/10/22 09:38:25;;;;;;;71.93;13.38;;;10.50;99.90;;;;;;4996452;28;20186;-77
2021/10/22 09:40:56;;;;;;;78.70;22.30;;;10.80;99.90;;;;;;4996823;28;20220;-77
2021/10/22 09:43:23;;;;;;;74.38;28.15;;;10.90;99.90;;;;;;4996478;28;20166;-78
2021/10/22 09:45:53;;;;;;;74.03;28.02;;;11.00;99.90;;;;;;4996825;28;20224;-78
2021/10/22 09:48:26;;;;;;;75.82;29.38;;;11.00;99.90;;;;;;5015439;28;20207;-79
2021/10/22 09:50:53;;;;;;;73.50;25.77;;;10.90;99.90;;;;;;5015691;28;20177;-78
2021/10/22 09:53:34;;;;;;;77.20;34.05;;;10.90;99.90;;;;;;5015771;28;20181;-78
2021/10/22 09:56:02;;;;;;;75.40;27.50;;;10.90;99.90;;;;;;5015042;28;20146;-78
2021/10/22 09:58:28;;;;;;;77.20;31.63;;;10.90;99.90;;;;;;4995929;28;20558;-78
2021/10/22 10:01:11;;;;;;;75.53;26.73;;;11.00;99.90;;;;;;4996506;28;20224;-78
2021/10/22 10:03:39;;;;;;;78.20;30.90;;;11.00;99.90;;;;;;5015779;28;20146;-78
2021/10/22 10:06:09;;;;;;;77.68;29.25;;;11.10;99.90;;;;;;5014603;28;20166;-78
2021/10/22 10:08:39;;;;;;;70.70;13.55;;;11.20;99.90;;;;;;5014104;28;20174;-78
2021/10/22 10:11:07;;;;;;;69.07;13.60;;;11.30;98.40;;;;;;4996717;28;20537;-78
2021/10/22 10:13:33;;;;;;;70.50;16.88;;;11.40;98.30;;;;;;4996522;28;20169;-78
2021/10/22 10:16:04;;;;;;;70.57;13.38;;;11.30;99.90;;;;;;5014466;28;20169;-79
2021/10/22 10:18:37;;;;;;;69.25;9.73;;;11.30;97.60;;;;;;4996868;28;20695;-78
2021/10/22 10:21:05;;;;;;;75.13;9.90;;;11.30;96.70;;;;;;5014334;28;20649;-78
2021/10/22 10:23:32;;;;;;;68.80;13.38;;;11.20;97.90;;;;;;4996030;28;20181;-78
2021/10/22 10:26:28;;;;;;;79.70;22.02;;;11.20;99.90;;;;;;5013701;28;20161;-78
2021/10/22 10:28:55;;;;;;;74.22;22.40;;;11.30;99.90;;;;;;4996228;28;20264;-78
2021/10/22 10:31:28;;;;;;;72.68;21.92;;;11.30;99.90;;;;;;5013916;28;20170;-78
2021/10/22 10:33:55;;;;;;;69.57;15.52;;;11.30;99.90;;;;;;4996182;28;20208;-78
2021/10/22 10:36:46;;;;;;;70.97;21.98;;;11.30;99.90;;;;;;5013514;28;20256;-78
2021/10/22 10:39:13;;;;;;;71.47;13.40;;;11.30;99.90;;;;;;5013983;28;20236;-78
2021/10/22 10:41:39;;;;;;;67.03;8.73;;;11.30;99.60;;;;;;5013919;28;20246;-78
2021/10/22 10:44:27;;;;;;;70.07;8.13;;;11.30;98.20;;;;;;5015356;28;20202;-78
2021/10/22 10:46:52;;;;;;;71.20;9.80;;;11.60;98.90;;;;;;5017435;28;20387;-78
2021/10/22 10:49:46;;;;;;;67.43;12.93;;;11.80;96.00;;;;;;5016932;28;20186;-78
2021/10/22 10:52:37;;;;;;;68.07;11.88;;;11.70;92.00;;;;;;4999570;28;20186;-78
2021/10/22 10:55:14;;;;;;;80.30;21.67;;;11.60;92.10;;;;;;4999663;28;20166;-78
2021/10/22 10:57:49;;;;;;;76.40;12.95;;;11.70;87.60;;;;;;5017469;28;20644;-78
2021/10/22 11:00:21;;;;;;;75.30;24.00;;;11.70;87.70;;;;;;4999616;28;20192;-78
2021/10/22 11:03:02;;;;;;;67.53;11.50;;;11.80;89.30;;;;;;5017624;28;20633;-78
2021/10/22 11:05:53;;;;;;;72.10;17.63;;;12.00;88.60;;;;;;5017722;28;20177;-79
2021/10/22 11:08:26;;;;;;;69.65;7.10;;;12.10;82.70;;;;;;4999527;28;20190;-78
2021/10/22 11:11:00;;;;;;;66.43;10.00;;;12.00;83.60;;;;;;4998785;28;20263;-78
2021/10/22 11:13:46;;;;;;;68.30;9.15;;;12.20;87.00;;;;;;4999262;28;20173;-78
2021/10/22 11:16:41;;;;;;;67.75;12.15;;;12.50;80.20;;;;;;5016328;28;20236;-79
2021/10/22 11:19:12;;;;;;;66.40;6.07;;;12.60;73.60;;;;;;5016166;28;20185;-78
2021/10/22 11:21:52;;;;;;;71.55;13.30;;;12.70;79.00;;;;;;4998689;28;20190;-78
2021/10/22 11:24:24;;;;;;;69.57;16.83;;;12.80;72.20;;;;;;5016404;28;20633;-78
2021/10/22 11:27:05;;;;;;;71.82;19.33;;;12.80;77.30;;;;;;4998706;28;20684;-78
2021/10/22 11:29:37;;;;;;;75.72;26.92;;;12.70;74.70;;;;;;5016380;28;20205;-78
2021/10/22 11:32:23;;;;;;;73.88;30.50;;;12.70;69.10;;;;;;5016524;28;20162;-78
2021/10/22 11:34:57;;;;;;;74.82;28.00;;;12.60;71.50;;;;;;4998733;28;20180;-78
2021/10/22 11:37:27;;;;;;;73.25;23.52;;;12.60;73.80;;;;;;4998800;28;20184;-78
2021/10/22 11:39:54;;;;;;;76.38;24.92;;;12.60;68.90;;;;;;5016187;28;20236;-78
2021/10/22 11:42:27;;;;;;;73.97;19.85;;;12.60;77.20;;;;;;5016074;28;20154;-78
2021/10/22 11:44:59;;;;;;;80.40;29.77;;;12.70;78.30;;;;;;5016381;28;20185;-78
2021/10/22 11:47:44;;;;;;;72.82;29.40;;;12.60;74.60;;;;;;5016035;28;20300;-78
2021/10/22 11:50:10;;;;;;;72.03;19.13;;;12.60;70.70;;;;;;5016201;28;20170;-78
2021/10/22 11:52:35;;;;;;;73.73;20.57;;;12.60;77.70;;;;;;4998578;28;20236;-78
2021/10/22 11:55:03;;;;;;;73.37;20.50;;;12.40;73.90;;;;;;5015633;28;20495;-79
2021/10/22 11:57:29;;;;;;;69.32;12.50;;;12.40;76.50;;;;;;5015549;28;20204;-78
2021/10/22 11:59:57;;;;;;;70.00;10.50;;;12.30;82.30;;;;;;5015419;28;20189;-78
2021/10/22 12:02:25;;;;;;;71.03;7.93;;;12.30;84.30;;;;;;5015802;28;20416;-78
2021/10/22 12:05:12;;;;;;;69.70;8.13;;;12.60;83.60;;;;;;5015368;28;20166;-78
2021/10/22 12:07:49;;;;;;;73.00;15.35;;;12.90;81.20;;;;;;5015078;28;20174;-78
2021/10/22 12:10:16;;;;;;;74.40;26.98;;;13.20;76.90;;;;;;5016032;28;20166;-79
2021/10/22 12:12:48;;;;;;;74.78;27.85;;;13.20;74.50;;;;;;5015495;28;20166;-78
2021/10/22 12:15:30;;;;;;;74.43;25.90;;;12.90;67.60;;;;;;4998957;28;20170;-78
2021/10/22 12:18:01;;;;;;;75.30;22.40;;;12.80;70.40;;;;;;4998147;28;20198;-78
2021/10/22 12:20:28;;;;;;;69.15;18.35;;;12.60;78.00;;;;;;5015995;28;20385;-78
2021/10/22 12:23:04;;;;;;;72.63;23.98;;;12.50;83.10;;;;;;5015568;28;20173;-79
2021/10/22 12:25:34;;;;;;;72.38;16.17;;;12.30;80.60;;;;;;4997466;28;20564;-78
2021/10/22 12:28:10;;;;;;;70.13;13.13;;;12.20;83.40;;;;;;5067824;22;21020;-82
2021/10/22 12:30:36;;;;;;;65.50;7.63;;;12.00;87.30;;;;;;5039192;28;20165;-81
2021/10/22 12:33:05;;;;;;;65.57;6.00;;;12.00;90.40;;;;;;5039050;28;20591;-81
2021/10/22 12:35:52;;;;;;;70.10;7.43;;;12.00;90.00;;;;;;5038806;28;20173;-82
2021/10/22 12:38:26;;;;;;;66.55;6.20;;;12.00;89.60;;;;;;5038680;28;20189;-83
2021/10/22 12:40:54;;;;;;;68.63;10.85;;;12.00;91.00;;;;;;5037052;28;20184;-83
2021/10/22 12:43:24;;;;;;;71.57;11.27;;;12.00;93.00;;;;;;5038418;28;20664;-84
2021/10/22 12:46:21;;;;;;;67.03;9.63;;;12.00;93.40;;;;;;5037575;28;20169;-83
2021/10/22 12:48:51;;;;;;;67.93;10.93;;;12.10;92.20;;;;;;5025812;28;20256;-82
2021/10/22 12:51:22;;;;;;;71.15;10.48;;;12.20;93.50;;;;;;5039936;28;20245;-83
2021/10/22 12:53:50;;;;;;;68.13;9.07;;;12.30;91.00;;;;;;5039025;28;20605;-83
2021/10/22 12:56:28;;;;;;;67.57;10.63;;;12.30;91.20;;;;;;5038930;28;20172;-83
2021/10/22 12:59:03;;;;;;;70.95;9.55;;;12.40;92.50;;;;;;5038162;28;20530;-83
2021/10/22 13:01:40;;;;;;;70.40;10.63;;;12.40;92.00;;;;;;5037686;28;20204;-82
2021/10/22 13:04:12;;;;;;;67.32;10.68;;;12.40;93.30;;;;;;5038978;28;20156;-83